sensor_id;sensor_type;location;lat;lon;timestamp;P1;durP1;ratioP1;P2;durP2;ratioP2
21727;SDS011;11026;50.560;17.852;2023-04-06T00:02:10;37.80;;;27.17;;
21727;SDS011;11026;50.560;17.852;2023-04-06T00:04:38;35.80;;;26.38;;
21727;SDS011;11026;50.560;17.852;2023-04-06T00:07:05;36.67;;;26.55;;
21727;SDS011;11026;50.560;17.852;2023-04-06T00:09:33;42.00;;;29.25;;
21727;SDS011;11026;50.560;17.852;2023-04-06T00:12:01;54.90;;;34.78;;
21727;SDS011;11026;50.560;17.852;2023-04-06T00:14:31;77.22;;;53.45;;
21727;SDS011;11026;50.560;17.852;2023-04-06T00:16:59;45.83;;;33.00;;
21727;SDS011;11026;50.560;17.852;2023-04-06T00:19:28;43.45;;;31.30;;
21727;SDS011;11026;50.560;17.852;2023-04-06T00:21:55;53.10;;;36.00;;
21727;SDS011;11026;50.560;17.852;2023-04-06T00:24:24;56.75;;;40.33;;
21727;SDS011;11026;50.560;17.852;2023-04-06T00:26:51;58.50;;;39.70;;
21727;SDS011;11026;50.560;17.852;2023-04-06T00:29:19;48.78;;;33.78;;
21727;SDS011;11026;50.560;17.852;2023-04-06T00:31:47;54.05;;;38.60;;
21727;SDS011;11026;50.560;17.852;2023-04-06T00:34:16;49.35;;;34.30;;
21727;SDS011;11026;50.560;17.852;2023-04-06T00:36:44;56.67;;;37.22;;
21727;SDS011;11026;50.560;17.852;2023-04-06T00:39:11;80.25;;;48.03;;
21727;SDS011;11026;50.560;17.852;2023-04-06T00:41:39;87.47;;;51.90;;
21727;SDS011;11026;50.560;17.852;2023-04-06T00:44:15;71.13;;;47.30;;
21727;SDS011;11026;50.560;17.852;2023-04-06T00:46:44;68.07;;;45.88;;
21727;SDS011;11026;50.560;17.852;2023-04-06T00:49:12;109.90;;;68.35;;
21727;SDS011;11026;50.560;17.852;2023-04-06T00:51:41;75.50;;;50.80;;
21727;SDS011;11026;50.560;17.852;2023-04-06T00:54:15;58.83;;;42.28;;
21727;SDS011;11026;50.560;17.852;2023-04-06T00:56:43;68.50;;;48.22;;
21727;SDS011;11026;50.560;17.852;2023-04-06T00:59:11;54.28;;;37.97;;
21727;SDS011;11026;50.560;17.852;2023-04-06T01:01:39;73.57;;;48.58;;
21727;SDS011;11026;50.560;17.852;2023-04-06T01:04:08;60.05;;;41.05;;
21727;SDS011;11026;50.560;17.852;2023-04-06T01:06:35;69.72;;;45.38;;
21727;SDS011;11026;50.560;17.852;2023-04-06T01:09:04;71.97;;;47.17;;
21727;SDS011;11026;50.560;17.852;2023-04-06T01:11:32;65.45;;;44.92;;
21727;SDS011;11026;50.560;17.852;2023-04-06T01:14:00;65.65;;;45.85;;
21727;SDS011;11026;50.560;17.852;2023-04-06T01:16:28;66.45;;;43.67;;
21727;SDS011;11026;50.560;17.852;2023-04-06T01:19:09;61.28;;;42.55;;
21727;SDS011;11026;50.560;17.852;2023-04-06T01:21:37;61.13;;;42.83;;
21727;SDS011;11026;50.560;17.852;2023-04-06T01:24:06;68.35;;;45.75;;
21727;SDS011;11026;50.560;17.852;2023-04-06T01:26:34;63.05;;;43.03;;
21727;SDS011;11026;50.560;17.852;2023-04-06T01:29:03;60.90;;;42.33;;
21727;SDS011;11026;50.560;17.852;2023-04-06T01:31:31;70.95;;;47.85;;
21727;SDS011;11026;50.560;17.852;2023-04-06T01:33:59;75.15;;;49.08;;
21727;SDS011;11026;50.560;17.852;2023-04-06T01:36:33;66.28;;;44.95;;
21727;SDS011;11026;50.560;17.852;2023-04-06T01:39:01;62.97;;;43.55;;
21727;SDS011;11026;50.560;17.852;2023-04-06T01:41:29;61.40;;;41.97;;
21727;SDS011;11026;50.560;17.852;2023-04-06T01:43:56;73.57;;;46.58;;
21727;SDS011;11026;50.560;17.852;2023-04-06T01:46:23;64.80;;;44.25;;
21727;SDS011;11026;50.560;17.852;2023-04-06T01:48:52;73.25;;;46.50;;
21727;SDS011;11026;50.560;17.852;2023-04-06T01:51:20;65.72;;;44.30;;
21727;SDS011;11026;50.560;17.852;2023-04-06T01:53:48;67.35;;;46.03;;
21727;SDS011;11026;50.560;17.852;2023-04-06T01:56:16;65.03;;;45.67;;
21727;SDS011;11026;50.560;17.852;2023-04-06T01:58:43;66.82;;;44.42;;
21727;SDS011;11026;50.560;17.852;2023-04-06T02:01:11;59.00;;;40.35;;
21727;SDS011;11026;50.560;17.852;2023-04-06T02:03:38;53.42;;;37.42;;
21727;SDS011;11026;50.560;17.852;2023-04-06T02:06:06;51.85;;;38.47;;
21727;SDS011;11026;50.560;17.852;2023-04-06T02:08:33;52.20;;;37.85;;
21727;SDS011;11026;50.560;17.852;2023-04-06T02:11:02;60.33;;;41.58;;
21727;SDS011;11026;50.560;17.852;2023-04-06T02:13:29;55.67;;;40.25;;
21727;SDS011;11026;50.560;17.852;2023-04-06T02:15:57;56.53;;;39.38;;
21727;SDS011;11026;50.560;17.852;2023-04-06T02:18:25;93.07;;;64.55;;
21727;SDS011;11026;50.560;17.852;2023-04-06T02:20:52;150.45;;;96.32;;
21727;SDS011;11026;50.560;17.852;2023-04-06T02:23:21;93.85;;;62.95;;
21727;SDS011;11026;50.560;17.852;2023-04-06T02:25:48;66.10;;;46.00;;
21727;SDS011;11026;50.560;17.852;2023-04-06T02:28:17;70.20;;;46.30;;
21727;SDS011;11026;50.560;17.852;2023-04-06T02:30:44;71.45;;;47.92;;
21727;SDS011;11026;50.560;17.852;2023-04-06T02:33:11;66.43;;;44.65;;
21727;SDS011;11026;50.560;17.852;2023-04-06T02:35:39;57.67;;;41.45;;
21727;SDS011;11026;50.560;17.852;2023-04-06T02:38:06;61.03;;;39.67;;
21727;SDS011;11026;50.560;17.852;2023-04-06T02:40:34;59.05;;;41.08;;
21727;SDS011;11026;50.560;17.852;2023-04-06T02:43:01;59.15;;;40.85;;
21727;SDS011;11026;50.560;17.852;2023-04-06T02:45:29;64.28;;;44.20;;
21727;SDS011;11026;50.560;17.852;2023-04-06T02:47:56;65.00;;;45.10;;
21727;SDS011;11026;50.560;17.852;2023-04-06T02:50:26;58.47;;;42.15;;
21727;SDS011;11026;50.560;17.852;2023-04-06T02:52:53;57.10;;;40.95;;
21727;SDS011;11026;50.560;17.852;2023-04-06T02:55:21;62.63;;;42.00;;
21727;SDS011;11026;50.560;17.852;2023-04-06T02:57:48;55.75;;;39.45;;
21727;SDS011;11026;50.560;17.852;2023-04-06T03:00:17;58.17;;;41.53;;
21727;SDS011;11026;50.560;17.852;2023-04-06T03:02:44;64.00;;;44.53;;
21727;SDS011;11026;50.560;17.852;2023-04-06T03:05:11;61.85;;;43.90;;
21727;SDS011;11026;50.560;17.852;2023-04-06T03:07:38;54.97;;;39.45;;
21727;SDS011;11026;50.560;17.852;2023-04-06T03:10:07;52.17;;;37.85;;
21727;SDS011;11026;50.560;17.852;2023-04-06T03:12:36;50.15;;;38.00;;
21727;SDS011;11026;50.560;17.852;2023-04-06T03:15:05;52.53;;;39.08;;
21727;SDS011;11026;50.560;17.852;2023-04-06T03:17:32;59.80;;;41.08;;
21727;SDS011;11026;50.560;17.852;2023-04-06T03:20:00;50.50;;;37.88;;
21727;SDS011;11026;50.560;17.852;2023-04-06T03:22:28;56.90;;;39.58;;
21727;SDS011;11026;50.560;17.852;2023-04-06T03:24:56;64.10;;;43.53;;
21727;SDS011;11026;50.560;17.852;2023-04-06T03:27:24;67.78;;;46.25;;
21727;SDS011;11026;50.560;17.852;2023-04-06T03:29:53;60.35;;;43.25;;
21727;SDS011;11026;50.560;17.852;2023-04-06T03:32:26;60.50;;;44.88;;
21727;SDS011;11026;50.560;17.852;2023-04-06T03:34:53;57.15;;;40.10;;
21727;SDS011;11026;50.560;17.852;2023-04-06T03:37:23;57.78;;;40.28;;
21727;SDS011;11026;50.560;17.852;2023-04-06T03:39:50;57.65;;;39.53;;
21727;SDS011;11026;50.560;17.852;2023-04-06T03:42:19;63.42;;;44.42;;
21727;SDS011;11026;50.560;17.852;2023-04-06T03:44:47;71.13;;;46.38;;
21727;SDS011;11026;50.560;17.852;2023-04-06T03:47:14;73.88;;;45.35;;
21727;SDS011;11026;50.560;17.852;2023-04-06T03:49:44;64.18;;;44.85;;
21727;SDS011;11026;50.560;17.852;2023-04-06T03:52:11;64.30;;;44.30;;
21727;SDS011;11026;50.560;17.852;2023-04-06T03:54:38;62.15;;;43.85;;
21727;SDS011;11026;50.560;17.852;2023-04-06T03:57:06;60.83;;;43.22;;
21727;SDS011;11026;50.560;17.852;2023-04-06T03:59:33;63.97;;;41.10;;
21727;SDS011;11026;50.560;17.852;2023-04-06T04:02:01;61.10;;;42.78;;
21727;SDS011;11026;50.560;17.852;2023-04-06T04:04:28;64.18;;;41.85;;
21727;SDS011;11026;50.560;17.852;2023-04-06T04:06:55;60.17;;;40.97;;
21727;SDS011;11026;50.560;17.852;2023-04-06T04:09:23;59.50;;;41.92;;
21727;SDS011;11026;50.560;17.852;2023-04-06T04:11:52;60.42;;;41.92;;
21727;SDS011;11026;50.560;17.852;2023-04-06T04:14:20;58.00;;;41.58;;
21727;SDS011;11026;50.560;17.852;2023-04-06T04:16:47;63.75;;;44.25;;
21727;SDS011;11026;50.560;17.852;2023-04-06T04:19:16;61.22;;;44.25;;
21727;SDS011;11026;50.560;17.852;2023-04-06T04:21:43;66.28;;;47.20;;
21727;SDS011;11026;50.560;17.852;2023-04-06T04:24:12;65.78;;;43.85;;
21727;SDS011;11026;50.560;17.852;2023-04-06T04:26:40;60.58;;;42.72;;
21727;SDS011;11026;50.560;17.852;2023-04-06T04:29:08;66.13;;;44.22;;
21727;SDS011;11026;50.560;17.852;2023-04-06T04:31:36;61.80;;;43.33;;
21727;SDS011;11026;50.560;17.852;2023-04-06T04:34:04;65.57;;;44.00;;
21727;SDS011;11026;50.560;17.852;2023-04-06T04:36:34;65.22;;;44.25;;
21727;SDS011;11026;50.560;17.852;2023-04-06T04:39:01;66.65;;;43.58;;
21727;SDS011;11026;50.560;17.852;2023-04-06T04:41:29;64.70;;;45.38;;
21727;SDS011;11026;50.560;17.852;2023-04-06T04:43:57;70.35;;;46.45;;
21727;SDS011;11026;50.560;17.852;2023-04-06T04:46:26;71.97;;;46.72;;
21727;SDS011;11026;50.560;17.852;2023-04-06T04:48:55;69.85;;;47.47;;
21727;SDS011;11026;50.560;17.852;2023-04-06T04:51:24;68.88;;;48.28;;
21727;SDS011;11026;50.560;17.852;2023-04-06T04:53:53;67.63;;;47.20;;
21727;SDS011;11026;50.560;17.852;2023-04-06T04:56:20;63.17;;;45.00;;
21727;SDS011;11026;50.560;17.852;2023-04-06T04:58:49;66.05;;;47.17;;
21727;SDS011;11026;50.560;17.852;2023-04-06T05:01:17;67.55;;;47.17;;
21727;SDS011;11026;50.560;17.852;2023-04-06T05:03:44;77.78;;;47.42;;
21727;SDS011;11026;50.560;17.852;2023-04-06T05:06:12;76.13;;;49.90;;
21727;SDS011;11026;50.560;17.852;2023-04-06T05:08:40;86.00;;;54.25;;
21727;SDS011;11026;50.560;17.852;2023-04-06T05:11:08;75.90;;;50.33;;
21727;SDS011;11026;50.560;17.852;2023-04-06T05:13:36;86.88;;;57.45;;
21727;SDS011;11026;50.560;17.852;2023-04-06T05:16:06;87.68;;;57.60;;
21727;SDS011;11026;50.560;17.852;2023-04-06T05:18:34;73.05;;;50.17;;
21727;SDS011;11026;50.560;17.852;2023-04-06T05:21:02;74.57;;;48.42;;
21727;SDS011;11026;50.560;17.852;2023-04-06T05:23:30;63.15;;;43.65;;
21727;SDS011;11026;50.560;17.852;2023-04-06T05:25:57;62.45;;;43.88;;
21727;SDS011;11026;50.560;17.852;2023-04-06T05:28:25;58.25;;;40.72;;
21727;SDS011;11026;50.560;17.852;2023-04-06T05:30:54;64.30;;;43.03;;
21727;SDS011;11026;50.560;17.852;2023-04-06T05:33:23;62.70;;;43.05;;
21727;SDS011;11026;50.560;17.852;2023-04-06T05:35:51;63.25;;;43.45;;
21727;SDS011;11026;50.560;17.852;2023-04-06T05:38:19;63.78;;;45.47;;
21727;SDS011;11026;50.560;17.852;2023-04-06T05:40:47;62.63;;;44.92;;
21727;SDS011;11026;50.560;17.852;2023-04-06T05:43:15;73.43;;;48.13;;
21727;SDS011;11026;50.560;17.852;2023-04-06T05:45:43;75.97;;;50.33;;
21727;SDS011;11026;50.560;17.852;2023-04-06T05:48:12;92.63;;;60.05;;
21727;SDS011;11026;50.560;17.852;2023-04-06T05:50:39;101.45;;;61.95;;
21727;SDS011;11026;50.560;17.852;2023-04-06T05:53:07;111.65;;;70.72;;
21727;SDS011;11026;50.560;17.852;2023-04-06T05:55:34;110.80;;;66.93;;
21727;SDS011;11026;50.560;17.852;2023-04-06T05:58:02;117.93;;;73.85;;
21727;SDS011;11026;50.560;17.852;2023-04-06T06:00:30;124.60;;;77.93;;
21727;SDS011;11026;50.560;17.852;2023-04-06T06:03:01;118.63;;;76.07;;
21727;SDS011;11026;50.560;17.852;2023-04-06T06:08:04;108.45;;;71.32;;
21727;SDS011;11026;50.560;17.852;2023-04-06T06:10:31;112.93;;;74.00;;
21727;SDS011;11026;50.560;17.852;2023-04-06T06:12:58;153.43;;;105.97;;
21727;SDS011;11026;50.560;17.852;2023-04-06T06:15:26;131.52;;;92.25;;
21727;SDS011;11026;50.560;17.852;2023-04-06T06:17:53;119.70;;;80.90;;
21727;SDS011;11026;50.560;17.852;2023-04-06T06:20:21;129.18;;;87.90;;
21727;SDS011;11026;50.560;17.852;2023-04-06T06:22:49;116.30;;;75.13;;
21727;SDS011;11026;50.560;17.852;2023-04-06T06:25:16;109.03;;;74.03;;
21727;SDS011;11026;50.560;17.852;2023-04-06T06:27:44;98.22;;;69.22;;
21727;SDS011;11026;50.560;17.852;2023-04-06T06:30:11;102.63;;;67.90;;
21727;SDS011;11026;50.560;17.852;2023-04-06T06:32:39;98.20;;;68.95;;
21727;SDS011;11026;50.560;17.852;2023-04-06T06:35:07;114.50;;;71.35;;
21727;SDS011;11026;50.560;17.852;2023-04-06T06:37:34;92.60;;;62.05;;
21727;SDS011;11026;50.560;17.852;2023-04-06T06:40:02;93.40;;;57.95;;
21727;SDS011;11026;50.560;17.852;2023-04-06T06:42:35;90.03;;;57.15;;
21727;SDS011;11026;50.560;17.852;2023-04-06T06:45:03;87.25;;;56.70;;
21727;SDS011;11026;50.560;17.852;2023-04-06T06:47:31;94.38;;;57.00;;
21727;SDS011;11026;50.560;17.852;2023-04-06T06:49:59;88.22;;;55.92;;
21727;SDS011;11026;50.560;17.852;2023-04-06T06:52:26;89.35;;;54.75;;
21727;SDS011;11026;50.560;17.852;2023-04-06T06:54:55;83.63;;;55.00;;
21727;SDS011;11026;50.560;17.852;2023-04-06T06:57:25;105.00;;;69.65;;
21727;SDS011;11026;50.560;17.852;2023-04-06T06:59:53;114.10;;;68.55;;
21727;SDS011;11026;50.560;17.852;2023-04-06T07:02:20;100.63;;;59.30;;
21727;SDS011;11026;50.560;17.852;2023-04-06T07:04:48;91.90;;;55.05;;
21727;SDS011;11026;50.560;17.852;2023-04-06T07:07:16;83.30;;;53.42;;
21727;SDS011;11026;50.560;17.852;2023-04-06T07:09:43;84.93;;;52.28;;
21727;SDS011;11026;50.560;17.852;2023-04-06T07:12:11;81.78;;;51.50;;
21727;SDS011;11026;50.560;17.852;2023-04-06T07:14:38;85.07;;;51.38;;
21727;SDS011;11026;50.560;17.852;2023-04-06T07:17:06;73.72;;;47.63;;
21727;SDS011;11026;50.560;17.852;2023-04-06T07:19:33;80.47;;;46.67;;
21727;SDS011;11026;50.560;17.852;2023-04-06T07:22:00;71.95;;;46.20;;
21727;SDS011;11026;50.560;17.852;2023-04-06T07:24:29;72.45;;;45.00;;
21727;SDS011;11026;50.560;17.852;2023-04-06T07:26:58;65.55;;;41.67;;
21727;SDS011;11026;50.560;17.852;2023-04-06T07:29:25;69.28;;;42.60;;
21727;SDS011;11026;50.560;17.852;2023-04-06T07:31:55;66.95;;;42.42;;
21727;SDS011;11026;50.560;17.852;2023-04-06T07:34:24;62.92;;;41.97;;
21727;SDS011;11026;50.560;17.852;2023-04-06T07:36:51;66.38;;;40.80;;
21727;SDS011;11026;50.560;17.852;2023-04-06T07:39:20;64.78;;;42.17;;
21727;SDS011;11026;50.560;17.852;2023-04-06T07:41:47;67.85;;;42.10;;
21727;SDS011;11026;50.560;17.852;2023-04-06T07:44:16;63.95;;;40.35;;
21727;SDS011;11026;50.560;17.852;2023-04-06T07:46:43;64.40;;;39.78;;
21727;SDS011;11026;50.560;17.852;2023-04-06T07:49:11;64.53;;;39.33;;
21727;SDS011;11026;50.560;17.852;2023-04-06T07:51:39;65.72;;;37.83;;
21727;SDS011;11026;50.560;17.852;2023-04-06T07:54:06;57.10;;;36.47;;
21727;SDS011;11026;50.560;17.852;2023-04-06T07:56:34;59.00;;;36.60;;
21727;SDS011;11026;50.560;17.852;2023-04-06T07:59:01;53.50;;;33.85;;
21727;SDS011;11026;50.560;17.852;2023-04-06T08:01:29;56.03;;;35.25;;
21727;SDS011;11026;50.560;17.852;2023-04-06T08:03:57;53.47;;;33.50;;
21727;SDS011;11026;50.560;17.852;2023-04-06T08:06:25;52.35;;;32.50;;
21727;SDS011;11026;50.560;17.852;2023-04-06T08:08:53;51.83;;;30.35;;
21727;SDS011;11026;50.560;17.852;2023-04-06T08:11:21;47.80;;;29.15;;
21727;SDS011;11026;50.560;17.852;2023-04-06T08:13:49;44.47;;;28.08;;
21727;SDS011;11026;50.560;17.852;2023-04-06T08:16:16;42.83;;;28.52;;
21727;SDS011;11026;50.560;17.852;2023-04-06T08:18:46;47.28;;;29.55;;
21727;SDS011;11026;50.560;17.852;2023-04-06T08:21:13;61.10;;;36.65;;
21727;SDS011;11026;50.560;17.852;2023-04-06T08:23:42;42.65;;;28.83;;
21727;SDS011;11026;50.560;17.852;2023-04-06T08:26:09;34.15;;;21.65;;
21727;SDS011;11026;50.560;17.852;2023-04-06T08:28:37;39.25;;;26.10;;
21727;SDS011;11026;50.560;17.852;2023-04-06T08:31:06;40.63;;;23.90;;
21727;SDS011;11026;50.560;17.852;2023-04-06T08:33:33;36.33;;;24.08;;
21727;SDS011;11026;50.560;17.852;2023-04-06T08:36:09;43.88;;;27.08;;
21727;SDS011;11026;50.560;17.852;2023-04-06T08:38:38;42.08;;;26.67;;
21727;SDS011;11026;50.560;17.852;2023-04-06T08:41:13;30.00;;;19.92;;
21727;SDS011;11026;50.560;17.852;2023-04-06T08:43:47;33.55;;;21.17;;
21727;SDS011;11026;50.560;17.852;2023-04-06T08:46:17;35.30;;;22.05;;
21727;SDS011;11026;50.560;17.852;2023-04-06T08:48:44;29.83;;;20.35;;
21727;SDS011;11026;50.560;17.852;2023-04-06T08:51:13;34.22;;;20.55;;
21727;SDS011;11026;50.560;17.852;2023-04-06T08:53:41;28.05;;;18.13;;
21727;SDS011;11026;50.560;17.852;2023-04-06T08:56:09;62.40;;;39.70;;
21727;SDS011;11026;50.560;17.852;2023-04-06T08:58:39;59.03;;;35.92;;
21727;SDS011;11026;50.560;17.852;2023-04-06T09:01:07;40.72;;;23.15;;
21727;SDS011;11026;50.560;17.852;2023-04-06T09:03:39;25.65;;;17.45;;
21727;SDS011;11026;50.560;17.852;2023-04-06T09:06:07;21.90;;;14.10;;
21727;SDS011;11026;50.560;17.852;2023-04-06T09:08:37;21.27;;;12.90;;
21727;SDS011;11026;50.560;17.852;2023-04-06T09:11:06;20.63;;;13.30;;
21727;SDS011;11026;50.560;17.852;2023-04-06T09:13:47;18.77;;;13.40;;
21727;SDS011;11026;50.560;17.852;2023-04-06T09:16:16;19.42;;;13.30;;
21727;SDS011;11026;50.560;17.852;2023-04-06T09:18:45;17.63;;;12.82;;
21727;SDS011;11026;50.560;17.852;2023-04-06T09:21:16;18.98;;;13.13;;
21727;SDS011;11026;50.560;17.852;2023-04-06T09:26:25;18.75;;;11.93;;
21727;SDS011;11026;50.560;17.852;2023-04-06T09:28:55;19.17;;;11.63;;
21727;SDS011;11026;50.560;17.852;2023-04-06T09:31:25;16.67;;;11.68;;
21727;SDS011;11026;50.560;17.852;2023-04-06T09:33:54;14.60;;;11.25;;
21727;SDS011;11026;50.560;17.852;2023-04-06T09:36:33;17.67;;;12.60;;
21727;SDS011;11026;50.560;17.852;2023-04-06T09:39:04;17.23;;;12.48;;
21727;SDS011;11026;50.560;17.852;2023-04-06T09:41:33;18.20;;;13.25;;
21727;SDS011;11026;50.560;17.852;2023-04-06T09:44:09;17.75;;;13.20;;
21727;SDS011;11026;50.560;17.852;2023-04-06T09:46:38;18.02;;;12.60;;
21727;SDS011;11026;50.560;17.852;2023-04-06T09:49:27;16.83;;;12.00;;
21727;SDS011;11026;50.560;17.852;2023-04-06T09:52:06;14.15;;;10.85;;
21727;SDS011;11026;50.560;17.852;2023-04-06T09:54:36;16.55;;;10.63;;
21727;SDS011;11026;50.560;17.852;2023-04-06T10:00:11;15.15;;;10.60;;
21727;SDS011;11026;50.560;17.852;2023-04-06T10:05:33;13.25;;;9.32;;
21727;SDS011;11026;50.560;17.852;2023-04-06T10:08:09;12.30;;;9.05;;
21727;SDS011;11026;50.560;17.852;2023-04-06T10:10:37;12.35;;;9.55;;
21727;SDS011;11026;50.560;17.852;2023-04-06T10:13:05;12.45;;;9.02;;
21727;SDS011;11026;50.560;17.852;2023-04-06T10:15:34;14.68;;;10.88;;
21727;SDS011;11026;50.560;17.852;2023-04-06T10:18:01;16.80;;;9.98;;
21727;SDS011;11026;50.560;17.852;2023-04-06T10:21:05;14.52;;;10.57;;
21727;SDS011;11026;50.560;17.852;2023-04-06T10:23:36;15.90;;;9.95;;
21727;SDS011;11026;50.560;17.852;2023-04-06T10:26:12;16.30;;;11.10;;
21727;SDS011;11026;50.560;17.852;2023-04-06T10:28:45;16.35;;;9.55;;
21727;SDS011;11026;50.560;17.852;2023-04-06T10:31:13;12.75;;;9.35;;
21727;SDS011;11026;50.560;17.852;2023-04-06T10:33:52;18.10;;;9.60;;
21727;SDS011;11026;50.560;17.852;2023-04-06T10:36:22;13.50;;;10.00;;
21727;SDS011;11026;50.560;17.852;2023-04-06T10:39:03;11.73;;;9.15;;
21727;SDS011;11026;50.560;17.852;2023-04-06T10:41:40;13.82;;;9.65;;
21727;SDS011;11026;50.560;17.852;2023-04-06T10:44:16;14.00;;;9.88;;
21727;SDS011;11026;50.560;17.852;2023-04-06T10:46:57;12.75;;;10.48;;
21727;SDS011;11026;50.560;17.852;2023-04-06T10:49:29;13.10;;;9.48;;
21727;SDS011;11026;50.560;17.852;2023-04-06T10:51:57;13.50;;;10.40;;
21727;SDS011;11026;50.560;17.852;2023-04-06T10:54:26;15.63;;;10.55;;
21727;SDS011;11026;50.560;17.852;2023-04-06T10:56:55;16.15;;;11.00;;
21727;SDS011;11026;50.560;17.852;2023-04-06T10:59:23;14.52;;;10.13;;
21727;SDS011;11026;50.560;17.852;2023-04-06T11:01:53;15.35;;;10.50;;
21727;SDS011;11026;50.560;17.852;2023-04-06T11:04:22;15.00;;;11.25;;
21727;SDS011;11026;50.560;17.852;2023-04-06T11:06:50;16.70;;;12.25;;
21727;SDS011;11026;50.560;17.852;2023-04-06T11:09:28;19.42;;;12.88;;
21727;SDS011;11026;50.560;17.852;2023-04-06T11:11:58;19.45;;;11.50;;
21727;SDS011;11026;50.560;17.852;2023-04-06T11:14:25;15.65;;;12.30;;
21727;SDS011;11026;50.560;17.852;2023-04-06T11:16:53;14.98;;;11.82;;
21727;SDS011;11026;50.560;17.852;2023-04-06T11:19:20;16.50;;;11.30;;
21727;SDS011;11026;50.560;17.852;2023-04-06T11:21:48;15.07;;;11.82;;
21727;SDS011;11026;50.560;17.852;2023-04-06T11:24:22;19.33;;;12.90;;
21727;SDS011;11026;50.560;17.852;2023-04-06T11:26:57;15.45;;;11.77;;
21727;SDS011;11026;50.560;17.852;2023-04-06T11:29:28;15.23;;;11.75;;
21727;SDS011;11026;50.560;17.852;2023-04-06T11:32:03;13.30;;;9.80;;
21727;SDS011;11026;50.560;17.852;2023-04-06T11:34:36;14.57;;;11.35;;
21727;SDS011;11026;50.560;17.852;2023-04-06T11:37:10;16.10;;;11.45;;
21727;SDS011;11026;50.560;17.852;2023-04-06T11:39:39;15.73;;;11.15;;
21727;SDS011;11026;50.560;17.852;2023-04-06T11:42:25;13.30;;;10.35;;
21727;SDS011;11026;50.560;17.852;2023-04-06T11:44:58;16.33;;;10.63;;
21727;SDS011;11026;50.560;17.852;2023-04-06T11:47:34;12.77;;;9.55;;
21727;SDS011;11026;50.560;17.852;2023-04-06T11:50:12;13.80;;;10.52;;
21727;SDS011;11026;50.560;17.852;2023-04-06T11:52:41;14.23;;;9.88;;
21727;SDS011;11026;50.560;17.852;2023-04-06T11:55:16;12.20;;;9.73;;
21727;SDS011;11026;50.560;17.852;2023-04-06T11:57:44;12.70;;;10.02;;
21727;SDS011;11026;50.560;17.852;2023-04-06T12:00:12;13.75;;;10.45;;
21727;SDS011;11026;50.560;17.852;2023-04-06T12:02:44;17.60;;;9.98;;
21727;SDS011;11026;50.560;17.852;2023-04-06T12:05:12;14.02;;;10.65;;
21727;SDS011;11026;50.560;17.852;2023-04-06T12:07:40;13.30;;;9.48;;
21727;SDS011;11026;50.560;17.852;2023-04-06T12:10:07;12.15;;;9.70;;
21727;SDS011;11026;50.560;17.852;2023-04-06T12:12:35;14.10;;;10.18;;
21727;SDS011;11026;50.560;17.852;2023-04-06T12:15:03;11.93;;;9.02;;
21727;SDS011;11026;50.560;17.852;2023-04-06T12:17:37;12.50;;;9.63;;
21727;SDS011;11026;50.560;17.852;2023-04-06T12:20:06;13.77;;;9.18;;
21727;SDS011;11026;50.560;17.852;2023-04-06T12:22:50;11.52;;;9.02;;
21727;SDS011;11026;50.560;17.852;2023-04-06T12:25:17;12.00;;;9.10;;
21727;SDS011;11026;50.560;17.852;2023-04-06T12:27:44;13.10;;;9.60;;
21727;SDS011;11026;50.560;17.852;2023-04-06T12:30:13;12.65;;;9.80;;
21727;SDS011;11026;50.560;17.852;2023-04-06T12:32:40;12.43;;;9.52;;
21727;SDS011;11026;50.560;17.852;2023-04-06T12:35:08;10.68;;;9.32;;
21727;SDS011;11026;50.560;17.852;2023-04-06T12:37:39;13.18;;;9.45;;
21727;SDS011;11026;50.560;17.852;2023-04-06T12:40:07;10.60;;;9.10;;
21727;SDS011;11026;50.560;17.852;2023-04-06T12:42:38;12.13;;;9.75;;
21727;SDS011;11026;50.560;17.852;2023-04-06T12:45:08;17.63;;;11.60;;
21727;SDS011;11026;50.560;17.852;2023-04-06T12:47:35;13.70;;;9.75;;
21727;SDS011;11026;50.560;17.852;2023-04-06T12:50:04;13.80;;;10.07;;
21727;SDS011;11026;50.560;17.852;2023-04-06T12:52:33;15.95;;;12.00;;
21727;SDS011;11026;50.560;17.852;2023-04-06T12:55:02;14.82;;;12.32;;
21727;SDS011;11026;50.560;17.852;2023-04-06T12:57:32;14.52;;;10.65;;
21727;SDS011;11026;50.560;17.852;2023-04-06T12:59:59;13.32;;;9.93;;
21727;SDS011;11026;50.560;17.852;2023-04-06T13:02:27;16.27;;;10.88;;
21727;SDS011;11026;50.560;17.852;2023-04-06T13:04:54;13.98;;;10.40;;
21727;SDS011;11026;50.560;17.852;2023-04-06T13:07:21;14.20;;;10.05;;
21727;SDS011;11026;50.560;17.852;2023-04-06T13:09:49;14.13;;;10.07;;
21727;SDS011;11026;50.560;17.852;2023-04-06T13:12:18;16.52;;;10.95;;
21727;SDS011;11026;50.560;17.852;2023-04-06T13:14:45;14.73;;;10.00;;
21727;SDS011;11026;50.560;17.852;2023-04-06T13:17:17;14.32;;;11.43;;
21727;SDS011;11026;50.560;17.852;2023-04-06T13:19:44;25.27;;;17.38;;
21727;SDS011;11026;50.560;17.852;2023-04-06T13:22:12;13.80;;;11.35;;
21727;SDS011;11026;50.560;17.852;2023-04-06T13:24:40;15.73;;;12.75;;
21727;SDS011;11026;50.560;17.852;2023-04-06T13:27:09;16.33;;;12.77;;
21727;SDS011;11026;50.560;17.852;2023-04-06T13:29:39;17.80;;;10.57;;
21727;SDS011;11026;50.560;17.852;2023-04-06T13:32:06;15.18;;;11.48;;
21727;SDS011;11026;50.560;17.852;2023-04-06T13:34:36;14.07;;;11.00;;
21727;SDS011;11026;50.560;17.852;2023-04-06T13:37:04;17.48;;;12.45;;
21727;SDS011;11026;50.560;17.852;2023-04-06T13:39:31;15.90;;;11.85;;
21727;SDS011;11026;50.560;17.852;2023-04-06T13:41:59;15.13;;;10.65;;
21727;SDS011;11026;50.560;17.852;2023-04-06T13:44:30;15.52;;;10.65;;
21727;SDS011;11026;50.560;17.852;2023-04-06T13:47:03;13.55;;;11.13;;
21727;SDS011;11026;50.560;17.852;2023-04-06T13:49:31;14.23;;;11.15;;
21727;SDS011;11026;50.560;17.852;2023-04-06T13:54:32;14.10;;;11.23;;
21727;SDS011;11026;50.560;17.852;2023-04-06T13:57:00;14.52;;;11.32;;
21727;SDS011;11026;50.560;17.852;2023-04-06T13:59:37;16.75;;;11.32;;
21727;SDS011;11026;50.560;17.852;2023-04-06T14:02:06;14.60;;;11.52;;
21727;SDS011;11026;50.560;17.852;2023-04-06T14:04:36;14.13;;;10.77;;
21727;SDS011;11026;50.560;17.852;2023-04-06T14:07:03;15.32;;;10.30;;
21727;SDS011;11026;50.560;17.852;2023-04-06T14:09:33;14.55;;;10.23;;
21727;SDS011;11026;50.560;17.852;2023-04-06T14:12:01;15.25;;;10.63;;
21727;SDS011;11026;50.560;17.852;2023-04-06T14:14:28;13.88;;;11.60;;
21727;SDS011;11026;50.560;17.852;2023-04-06T14:16:56;13.57;;;10.88;;
21727;SDS011;11026;50.560;17.852;2023-04-06T14:19:23;12.55;;;10.43;;
21727;SDS011;11026;50.560;17.852;2023-04-06T14:21:51;14.63;;;10.13;;
21727;SDS011;11026;50.560;17.852;2023-04-06T14:24:20;9.63;;;8.60;;
21727;SDS011;11026;50.560;17.852;2023-04-06T14:26:47;12.50;;;9.25;;
21727;SDS011;11026;50.560;17.852;2023-04-06T14:29:15;12.30;;;9.27;;
21727;SDS011;11026;50.560;17.852;2023-04-06T14:31:45;15.40;;;10.23;;
21727;SDS011;11026;50.560;17.852;2023-04-06T14:34:13;16.02;;;13.75;;